Time;durP1;ratioP1;P1;durP2;ratioP2;P2;SDS_P1;SDS_P2;PMS_P1;PMS_P2;Temp;Humidity;BMP_temperature;BMP_pressure;BME280_temperature;BME280_humidity;BME280_pressure;Samples;Min_cycle;Max_cycle;Signal;HPM_P1;HPM_P2
2021/11/25 00:01:56;;;;;;;21.02;10.43;;;;;;;-0.78;72.95;100035.00;4920461;29;20142;-63
2021/11/25 00:04:29;;;;;;;23.00;10.55;;;;;;;-0.86;72.78;100031.25;4920354;29;20102;-62
2021/11/25 00:06:58;;;;;;;24.92;10.68;;;;;;;-0.92;72.98;100021.81;4920386;29;20048;-62
2021/11/25 00:09:31;;;;;;;26.73;10.65;;;;;;;-0.98;73.38;100028.13;4921018;29;20052;-63
2021/11/25 00:12:02;;;;;;;26.83;11.13;;;;;;;-0.89;73.13;100021.09;4918991;29;20056;-63
2021/11/25 00:14:36;;;;;;;25.48;11.07;;;;;;;-0.92;73.15;100025.97;4919850;29;20082;-62
2021/11/25 00:17:05;;;;;;;27.45;10.85;;;;;;;-1.02;73.44;100013.75;4920165;29;20056;-66
2021/11/25 00:19:38;;;;;;;23.77;10.80;;;;;;;-0.91;73.38;100012.66;4919698;29;20052;-62
2021/11/25 00:22:07;;;;;;;26.85;10.90;;;;;;;-1.05;73.00;100013.59;4920042;29;20407;-63
2021/11/25 00:24:43;;;;;;;23.40;11.63;;;;;;;-1.08;73.29;100016.78;4920305;29;20135;-63
2021/11/25 00:27:14;;;;;;;25.27;9.88;;;;;;;-1.11;73.12;100018.31;4919682;29;20060;-63
2021/11/25 00:29:48;;;;;;;28.55;10.95;;;;;;;-1.30;73.07;99988.13;4919878;29;20060;-66
2021/11/25 00:32:20;;;;;;;22.25;11.30;;;;;;;-1.13;73.12;100022.38;4919572;29;20066;-64
2021/11/25 00:34:52;;;;;;;21.65;11.02;;;;;;;-1.02;73.40;100018.75;4919442;29;20131;-66
2021/11/25 00:37:28;;;;;;;26.38;11.02;;;;;;;-1.05;72.87;100019.47;4919458;29;20044;-67
2021/11/25 00:39:57;;;;;;;22.67;11.15;;;;;;;-1.07;72.71;100005.16;4919412;29;20107;-64
2021/11/25 00:42:28;;;;;;;28.85;12.40;;;;;;;-0.91;72.97;100017.66;4919697;29;20056;-64
2021/11/25 00:44:58;;;;;;;21.23;10.27;;;;;;;-0.84;72.83;100014.69;4919421;29;20572;-62
2021/11/25 00:47:27;;;;;;;22.90;8.32;;;;;;;-0.95;72.90;100015.78;4919570;29;20540;-63
2021/11/25 00:49:56;;;;;;;25.60;10.73;;;;;;;-0.94;72.83;100017.50;4919556;29;20052;-64
2021/11/25 00:52:28;;;;;;;28.17;10.88;;;;;;;-1.06;72.78;100006.88;4919156;29;20136;-68
2021/11/25 00:55:01;;;;;;;26.67;9.63;;;;;;;-1.05;73.00;100013.59;4919420;29;20068;-68
2021/11/25 00:57:35;;;;;;;26.23;10.57;;;;;;;-1.04;73.02;100010.31;4919136;29;20082;-67
2021/11/25 01:00:11;;;;;;;26.65;11.40;;;;;;;-1.07;73.21;100007.66;4919342;29;20391;-67
2021/11/25 01:02:44;;;;;;;27.23;11.10;;;;;;;-1.11;73.24;100005.78;4919070;29;20044;-68
2021/11/25 01:05:17;;;;;;;28.92;11.63;;;;;;;-1.18;73.34;99996.25;4919271;29;20457;-68
2021/11/25 01:07:47;;;;;;;27.25;11.15;;;;;;;-1.19;73.04;99995.38;4918985;29;20172;-67
2021/11/25 01:10:21;;;;;;;26.73;11.77;;;;;;;-1.11;73.29;99988.25;4919183;29;20063;-65
2021/11/25 01:12:57;;;;;;;30.58;12.60;;;;;;;-0.97;73.44;99994.81;4918873;29;20088;-67
2021/11/25 01:15:31;;;;;;;25.73;11.77;;;;;;;-0.91;73.32;99988.44;4918787;29;20075;-67
2021/11/25 01:18:05;;;;;;;27.60;10.98;;;;;;;-0.96;73.39;99981.50;4919051;29;20490;-67
2021/11/25 01:20:39;;;;;;;26.55;12.93;;;;;;;-1.07;73.34;99975.97;4918728;29;20593;-63
2021/11/25 01:23:15;;;;;;;27.05;12.82;;;;;;;-1.05;73.19;99978.53;4918425;29;20048;-63
2021/11/25 01:25:47;;;;;;;28.45;13.13;;;;;;;-0.95;73.26;99980.72;4918959;29;20151;-63
2021/11/25 01:28:23;;;;;;;32.47;12.10;;;;;;;-0.88;73.22;99968.56;4918890;29;20052;-63
2021/11/25 01:30:57;;;;;;;29.10;11.98;;;;;;;-0.86;73.39;99964.50;4918766;29;20051;-66
2021/11/25 01:33:31;;;;;;;25.70;11.63;;;;;;;-0.86;73.20;99951.97;4918828;29;20080;-67
2021/11/25 01:36:04;;;;;;;32.35;12.95;;;;;;;-0.86;73.09;99959.47;4918829;29;20387;-68
2021/11/25 01:38:37;;;;;;;28.92;12.60;;;;;;;-0.86;72.76;99951.09;4918372;29;20056;-67
2021/11/25 01:41:09;;;;;;;29.08;12.27;;;;;;;-0.84;73.06;99954.56;4918585;29;20079;-63
2021/11/25 01:43:43;;;;;;;29.85;11.70;;;;;;;-0.90;72.93;99955.13;4918331;29;20060;-67
2021/11/25 01:46:14;;;;;;;25.98;11.25;;;;;;;-0.86;72.90;99953.59;4918223;29;20132;-68
2021/11/25 01:48:51;;;;;;;25.75;11.52;;;;;;;-0.94;73.33;99943.25;4918204;29;20123;-63
2021/11/25 01:51:24;;;;;;;26.45;11.07;;;;;;;-0.93;73.03;99939.06;4918400;29;20048;-63
2021/11/25 01:53:57;;;;;;;26.38;11.80;;;;;;;-0.91;73.34;99922.50;4918409;29;20498;-63
2021/11/25 01:56:30;;;;;;;24.83;11.57;;;;;;;-0.80;73.37;99929.72;4918023;29;20108;-63
2021/11/25 01:59:04;;;;;;;29.58;11.77;;;;;;;-0.82;73.17;99927.94;4901376;29;20150;-63
2021/11/25 02:01:37;;;;;;;25.17;10.48;;;;;;;-0.92;73.33;99930.78;4917938;29;20107;-67
2021/11/25 02:04:09;;;;;;;29.73;11.55;;;;;;;-0.89;73.37;99920.91;4918258;29;20139;-68
2021/11/25 02:06:43;;;;;;;25.23;11.50;;;;;;;-0.87;73.14;99919.34;4918171;29;20062;-68
2021/11/25 02:09:16;;;;;;;27.17;11.85;;;;;;;-0.88;73.20;99908.44;4917835;29;20060;-68
2021/11/25 02:11:50;;;;;;;30.75;11.95;;;;;;;-0.94;73.25;99913.19;4918082;29;20052;-64
2021/11/25 02:14:24;;;;;;;23.80;10.05;;;;;;;-0.95;72.95;99906.44;4918094;29;20561;-65
2021/11/25 02:16:57;;;;;;;28.02;10.95;;;;;;;-0.87;73.24;99909.31;4917697;29;20056;-63
2021/11/25 02:19:30;;;;;;;24.98;10.82;;;;;;;-0.91;73.31;99902.47;4918323;29;20146;-67
2021/11/25 02:22:05;;;;;;;26.48;11.38;;;;;;;-0.86;73.33;99903.50;4917615;29;20060;-65
2021/11/25 02:24:42;;;;;;;;;;;;;;;-0.83;73.36;99901.16;4918063;29;20143;-67
2021/11/25 02:27:12;;;;;;;23.35;10.85;;;;;;;-0.79;73.43;99895.50;4917899;29;19994;-68
2021/11/25 02:29:44;;;;;;;26.92;10.70;;;;;;;-0.80;73.52;99901.31;4917827;29;20052;-63
2021/11/25 02:32:13;;;;;;;23.55;10.20;;;;;;;-0.73;73.51;99903.31;4917420;29;20052;-63
2021/11/25 02:34:46;;;;;;;22.73;10.43;;;;;;;-0.75;73.25;99897.38;4917146;29;20525;-63
2021/11/25 02:37:17;;;;;;;23.17;10.02;;;;;;;-0.75;73.38;99894.88;4917778;29;20052;-63
2021/11/25 02:39:49;;;;;;;25.23;11.73;;;;;;;-0.75;73.61;99889.84;4918036;29;20064;-63
2021/11/25 02:42:19;;;;;;;23.27;11.82;;;;;;;-0.83;73.79;99881.97;4917400;29;20047;-64
2021/11/25 02:44:52;;;;;;;25.33;11.43;;;;;;;-0.74;73.76;99894.06;4917659;29;20103;-67
2021/11/25 02:47:28;;;;;;;21.15;9.57;;;;;;;-0.69;73.68;99885.13;4917689;29;20127;-68
2021/11/25 02:49:57;;;;;;;24.27;10.35;;;;;;;-0.66;73.63;99880.25;4917654;29;20051;-68
2021/11/25 02:52:28;;;;;;;23.15;11.07;;;;;;;-0.80;73.53;99851.19;4917189;29;20076;-66
2021/11/25 02:55:01;;;;;;;28.63;11.85;;;;;;;-0.61;73.84;99876.31;4917311;29;20052;-64
2021/11/25 02:57:34;;;;;;;20.65;10.43;;;;;;;-0.49;74.02;99863.50;4917133;29;20056;-63
2021/11/25 03:00:14;;;;;;;27.15;9.93;;;;;;;-0.47;73.86;99861.91;4917575;29;20060;-63
2021/11/25 03:02:47;;;;;;;25.80;10.88;;;;;;;-0.39;74.10;99851.44;4917217;29;20135;-66
2021/11/25 03:05:19;;;;;;;25.30;11.20;;;;;;;-0.26;73.89;99848.69;4917223;29;20048;-67
2021/11/25 03:07:53;;;;;;;27.77;11.27;;;;;;;-0.17;74.22;99838.22;4917302;29;20056;-68
2021/11/25 03:10:26;;;;;;;27.90;11.73;;;;;;;-0.12;73.95;99837.59;4917144;29;20056;-68
2021/11/25 03:12:55;;;;;;;26.13;12.52;;;;;;;-0.06;73.86;99837.91;4917141;29;20075;-67
2021/11/25 03:15:30;;;;;;;26.23;11.60;;;;;;;-0.09;73.84;99832.75;4917418;29;20048;-68
2021/11/25 03:18:03;;;;;;;26.05;11.70;;;;;;;-0.01;74.08;99836.44;4917391;29;20142;-68
2021/11/25 03:20:36;;;;;;;24.33;11.25;;;;;;;0.04;74.09;99838.28;4917174;29;20116;-67
2021/11/25 03:23:08;;;;;;;25.90;11.80;;;;;;;0.05;74.05;99829.97;4917043;29;20076;-65
2021/11/25 03:25:44;;;;;;;27.40;10.68;;;;;;;0.07;74.16;99838.44;4917039;29;20593;-67
2021/11/25 03:28:17;;;;;;;20.77;10.73;;;;;;;0.19;74.14;99833.94;4917022;29;20052;-68
2021/11/25 03:30:55;;;;;;;24.15;11.60;;;;;;;0.23;74.79;99833.25;4917335;29;20076;-68
2021/11/25 03:33:27;;;;;;;25.85;10.80;;;;;;;0.20;74.53;99825.59;4916932;29;20070;-63
2021/11/25 03:36:02;;;;;;;25.73;12.05;;;;;;;0.13;74.30;99838.66;4917735;29;20101;-65
2021/11/25 03:38:36;;;;;;;29.92;12.98;;;;;;;0.19;74.90;99826.41;4916857;29;20048;-67
2021/11/25 03:41:07;;;;;;;26.10;11.95;;;;;;;0.26;75.07;99826.72;4916958;29;20056;-67
2021/11/25 03:43:43;;;;;;;29.80;12.20;;;;;;;0.37;74.65;99817.13;4916846;29;20116;-66
2021/11/25 03:46:16;;;;;;;27.58;10.77;;;;;;;0.46;75.33;99820.00;4918597;29;20063;-63
2021/11/25 03:48:49;;;;;;;27.25;11.98;;;;;;;0.67;75.88;99800.81;4920694;29;20060;-63
2021/11/25 03:51:21;;;;;;;27.63;12.18;;;;;;;0.88;76.07;99805.81;4920638;29;20146;-67
2021/11/25 03:53:55;;;;;;;27.25;11.55;;;;;;;1.05;76.22;99792.25;4920071;29;20106;-66
2021/11/25 03:56:28;;;;;;;32.50;11.85;;;;;;;1.25;76.29;99789.69;4920469;29;20150;-67
2021/11/25 03:59:00;;;;;;;30.67;13.52;;;;;;;1.41;76.56;99790.28;4920503;29;20052;-68
2021/11/25 04:01:33;;;;;;;33.92;11.68;;;;;;;1.62;77.10;99786.03;4920432;29;20155;-68
2021/11/25 04:04:02;;;;;;;31.17;13.98;;;;;;;1.65;77.34;99761.00;4920326;29;20414;-66
2021/11/25 04:06:38;;;;;;;31.23;14.05;;;;;;;1.93;77.32;99779.63;4920012;29;20066;-68
2021/11/25 04:09:12;;;;;;;28.92;11.32;;;;;;;2.01;77.99;99772.34;4920321;29;20139;-63
2021/11/25 04:11:45;;;;;;;33.40;12.82;;;;;;;2.08;77.81;99769.22;4920262;29;20074;-63
2021/11/25 04:14:15;;;;;;;30.10;12.00;;;;;;;2.20;78.21;99774.69;4920146;29;20078;-65
2021/11/25 04:16:47;;;;;;;29.10;12.98;;;;;;;2.25;77.37;99768.13;4919734;29;20142;-63
2021/11/25 04:19:19;;;;;;;29.85;12.55;;;;;;;2.32;77.49;99770.06;4920129;29;20513;-67
2021/11/25 04:21:55;;;;;;;30.77;11.85;;;;;;;2.37;77.49;99767.69;4919768;29;20096;-67
2021/11/25 04:24:29;;;;;;;23.33;11.93;;;;;;;2.45;77.28;99762.06;4919722;29;20052;-67
2021/11/25 04:27:01;;;;;;;23.98;9.70;;;;;;;2.53;77.80;99755.63;4919940;29;20060;-64
2021/11/25 04:29:36;;;;;;;28.75;12.13;;;;;;;2.58;77.43;99754.13;4919604;29;20048;-65
2021/11/25 04:37:35;;;;;;;26.63;11.90;;;;;;;2.66;76.67;99731.69;4919834;29;20080;-66
2021/11/25 04:40:11;;;;;;;25.80;12.02;;;;;;;2.75;77.23;99737.03;4919555;29;20060;-63
2021/11/25 04:42:43;;;;;;;26.83;11.63;;;;;;;2.72;76.75;99742.81;4919426;29;20135;-63
2021/11/25 04:45:16;;;;;;;26.45;11.57;;;;;;;2.66;76.51;99745.13;4919569;29;20127;-63
2021/11/25 04:47:48;;;;;;;34.97;14.23;;;;;;;2.60;76.71;99727.31;4919529;29;20566;-66
2021/11/25 04:50:21;;;;;;;31.35;14.15;;;;;;;2.70;76.79;99734.34;4919087;29;20060;-63
2021/11/25 04:52:53;;;;;;;30.80;12.70;;;;;;;2.71;76.63;99735.22;4919093;29;20048;-63
2021/11/25 04:55:27;;;;;;;25.05;11.02;;;;;;;2.71;76.41;99731.00;4919246;29;20056;-63
2021/11/25 04:58:00;;;;;;;23.95;10.95;;;;;;;2.66;76.61;99735.03;4918672;29;20466;-64
2021/11/25 05:00:32;;;;;;;25.52;10.93;;;;;;;2.79;76.54;99732.91;4919398;29;20055;-65
2021/11/25 05:03:05;;;;;;;23.90;10.27;;;;;;;2.85;76.63;99728.06;4919365;29;20127;-67
2021/11/25 05:05:38;;;;;;;19.35;8.38;;;;;;;2.92;76.47;99719.88;4919601;29;20060;-67
2021/11/25 05:08:14;;;;;;;24.77;9.15;;;;;;;3.01;76.42;99730.25;4918920;29;20048;-64
2021/11/25 05:10:47;;;;;;;27.23;11.73;;;;;;;3.07;75.95;99716.13;4918751;29;20056;-63
2021/11/25 05:13:23;;;;;;;23.10;10.38;;;;;;;3.09;75.53;99713.69;4918888;29;20052;-63
2021/11/25 05:15:57;;;;;;;22.70;10.30;;;;;;;3.15;75.52;99703.75;4918827;29;20048;-63
2021/11/25 05:18:29;;;;;;;21.67;9.50;;;;;;;3.18;75.42;99708.91;4918838;29;20048;-66
2021/11/25 05:21:04;;;;;;;21.25;9.32;;;;;;;3.26;74.90;99698.22;4919070;29;20455;-63
2021/11/25 05:23:37;;;;;;;23.10;9.32;;;;;;;3.36;75.60;99689.22;4918688;29;20064;-63
2021/11/25 05:26:10;;;;;;;25.33;10.27;;;;;;;3.38;74.36;99691.00;4918953;29;20063;-63
2021/11/25 05:28:42;;;;;;;23.90;10.32;;;;;;;3.43;nan;99686.09;4918856;29;20499;-67
2021/11/25 05:31:15;;;;;;;21.95;10.13;;;;;;;3.41;74.15;99682.66;4918547;29;20052;-67
2021/11/25 05:33:47;;;;;;;19.45;8.75;;;;;;;3.44;74.49;99686.94;4919075;29;20056;-63
2021/11/25 05:36:20;;;;;;;22.00;9.95;;;;;;;3.47;74.43;99682.84;4918509;29;20533;-63
2021/11/25 05:38:52;;;;;;;22.42;9.25;;;;;;;3.38;73.73;99677.53;4918571;29;20074;-66
2021/11/25 05:41:26;;;;;;;31.85;12.05;;;;;;;3.41;74.31;99680.13;4918647;29;20488;-67
2021/11/25 05:43:55;;;;;;;38.80;14.45;;;;;;;3.44;74.88;99672.66;4918608;29;20148;-67
2021/11/25 05:46:27;;;;;;;36.35;14.88;;;;;;;3.44;73.91;99661.69;4918572;29;20098;-64
2021/11/25 05:49:00;;;;;;;23.75;9.40;;;;;;;3.53;74.33;99672.06;4918201;29;20052;-66
2021/11/25 05:51:34;;;;;;;37.53;14.55;;;;;;;3.59;74.13;99668.03;4918421;29;20475;-63
2021/11/25 05:54:06;;;;;;;25.23;10.07;;;;;;;3.64;74.63;99666.47;4899194;29;20139;-63
2021/11/25 05:56:40;;;;;;;22.20;9.38;;;;;;;3.67;74.80;99670.75;4899481;29;20511;-67
2021/11/25 05:59:16;;;;;;;19.90;9.05;;;;;;;3.76;74.36;99660.91;4898992;29;20105;-65
2021/11/25 06:01:48;;;;;;;18.13;8.48;;;;;;;3.83;74.62;99663.63;4899307;29;20495;-63
2021/11/25 06:04:21;;;;;;;21.48;9.63;;;;;;;3.86;75.30;99663.69;4882420;29;20056;-67
2021/11/25 06:06:54;;;;;;;19.45;8.50;;;;;;;3.93;74.75;99655.47;4899302;29;20566;-63
2021/11/25 06:09:29;;;;;;;23.15;10.05;;;;;;;3.90;74.82;99652.84;4898071;29;20132;-66
2021/11/25 06:12:05;;;;;;;19.45;9.30;;;;;;;3.87;74.73;99642.69;4898934;29;20053;-63
2021/11/25 06:14:36;;;;;;;23.25;9.45;;;;;;;3.91;75.38;99641.09;4898980;29;20044;-63
2021/11/25 06:17:09;;;;;;;23.38;10.68;;;;;;;3.88;75.12;99641.00;4899160;29;20048;-64
2021/11/25 06:19:41;;;;;;;19.52;9.48;;;;;;;3.82;75.14;99631.59;4898731;29;20049;-66
2021/11/25 06:22:13;;;;;;;22.58;10.70;;;;;;;3.85;75.44;99645.97;4898966;29;20521;-64
2021/11/25 06:24:45;;;;;;;18.88;8.93;;;;;;;3.85;76.06;99641.78;4898749;29;20105;-64
2021/11/25 06:27:19;;;;;;;23.75;9.63;;;;;;;3.89;76.04;99638.50;4899013;29;20093;-67
2021/11/25 06:29:52;;;;;;;22.70;9.23;;;;;;;3.88;75.95;99631.78;4898714;29;20120;-64
2021/11/25 06:32:24;;;;;;;22.67;9.10;;;;;;;3.97;76.57;99636.19;4898608;29;20116;-63
2021/11/25 06:34:53;;;;;;;19.50;8.95;;;;;;;3.96;76.45;99640.38;4898597;29;20057;-66
2021/11/25 06:37:25;;;;;;;17.83;8.00;;;;;;;4.01;76.88;99645.53;4898903;29;20053;-66
2021/11/25 06:39:57;;;;;;;22.17;9.80;;;;;;;4.03;76.44;99634.66;4898831;29;20056;-64
2021/11/25 06:42:28;;;;;;;22.30;10.50;;;;;;;4.08;76.90;99634.78;4899069;29;20057;-63
2021/11/25 06:45:01;;;;;;;23.25;11.38;;;;;;;4.15;76.78;99634.09;4898779;29;20049;-64
2021/11/25 06:47:30;;;;;;;25.25;10.82;;;;;;;4.22;76.42;99633.44;4898447;29;20063;-66
2021/11/25 06:50:02;;;;;;;28.45;11.40;;;;;;;4.24;76.48;99631.81;4898729;29;20085;-67
2021/11/25 06:52:32;;;;;;;22.20;8.05;;;;;;;4.15;76.74;99625.69;4905521;29;20055;-63
2021/11/25 06:55:05;;;;;;;25.25;10.65;;;;;;;4.23;76.15;99630.09;4917268;29;20056;-64
2021/11/25 06:57:36;;;;;;;22.48;10.63;;;;;;;4.23;76.53;99626.69;4917477;29;20413;-63
2021/11/25 07:00:11;;;;;;;23.00;9.73;;;;;;;4.29;76.99;99626.88;4917183;29;20052;-64
2021/11/25 07:02:40;;;;;;;17.65;8.65;;;;;;;4.33;76.40;99628.63;4917366;29;20532;-63
2021/11/25 07:05:11;;;;;;;21.98;9.82;;;;;;;4.33;76.98;99626.09;4917359;29;20147;-65
2021/11/25 07:07:44;;;;;;;22.90;10.57;;;;;;;4.39;76.58;99626.25;4917159;29;20115;-66
2021/11/25 07:10:17;;;;;;;21.35;8.55;;;;;;;4.32;76.96;99602.50;4917125;29;20052;-65
2021/11/25 07:12:48;;;;;;;26.50;10.27;;;;;;;4.41;76.63;99609.47;4917452;29;20079;-67
2021/11/25 07:15:24;;;;;;;25.45;11.65;;;;;;;4.45;76.93;99606.16;4917091;29;20569;-64
2021/11/25 07:17:53;;;;;;;23.67;11.50;;;;;;;4.44;76.50;99599.44;4917028;29;20108;-64
2021/11/25 07:20:26;;;;;;;19.08;8.15;;;;;;;4.41;76.93;99604.41;4917559;29;20103;-64
2021/11/25 07:22:58;;;;;;;25.67;10.35;;;;;;;4.39;76.92;99598.47;4921074;29;20070;-64
2021/11/25 07:25:31;;;;;;;23.95;10.27;;;;;;;4.45;76.67;99596.06;4921045;29;20060;-65
2021/11/25 07:28:05;;;;;;;26.77;11.43;;;;;;;4.49;77.01;99587.72;4920702;29;20056;-66
2021/11/25 07:30:38;;;;;;;26.77;12.13;;;;;;;4.47;77.37;99589.38;4921018;29;20151;-67
2021/11/25 07:33:07;;;;;;;18.88;8.10;;;;;;;4.49;77.14;99585.19;4920570;29;20574;-64
2021/11/25 07:35:36;;;;;;;25.77;12.13;;;;;;;4.49;77.30;99582.66;4920442;29;20459;-65
2021/11/25 07:38:09;;;;;;;21.80;10.07;;;;;;;4.52;77.18;99588.66;4921036;29;20163;-63
2021/11/25 07:40:42;;;;;;;18.75;8.98;;;;;;;4.55;77.06;99575.22;4920395;29;20052;-64
2021/11/25 07:43:16;;;;;;;23.00;10.25;;;;;;;4.61;76.80;99588.00;4920467;29;20056;-66
2021/11/25 07:45:46;;;;;;;20.55;10.50;;;;;;;4.63;77.15;99578.78;4919994;29;20140;-65
2021/11/25 07:48:15;;;;;;;23.67;10.02;;;;;;;4.64;77.18;99580.47;4919966;29;20059;-66
2021/11/25 07:50:47;;;;;;;21.98;9.05;;;;;;;4.67;76.68;99580.56;4920203;29;20044;-65
2021/11/25 07:53:19;;;;;;;18.75;8.80;;;;;;;4.67;76.58;99572.97;4920190;29;20052;-65
2021/11/25 07:55:54;;;;;;;22.35;9.73;;;;;;;4.67;76.50;99575.50;4920787;29;20056;-65
2021/11/25 07:58:29;;;;;;;10.95;6.38;;;;;;;4.65;76.55;99569.56;4903243;29;20052;-64
2021/11/25 08:01:05;;;;;;;22.98;10.25;;;;;;;4.69;76.42;99566.25;4920141;29;20056;-65
2021/11/25 08:03:35;;;;;;;23.92;9.90;;;;;;;4.66;76.16;99563.66;4920365;29;20147;-65
2021/11/25 08:06:05;;;;;;;22.95;10.10;;;;;;;4.66;75.98;99561.13;4920254;29;20072;-64
2021/11/25 08:08:37;;;;;;;22.60;10.30;;;;;;;4.67;75.93;99555.28;4920212;29;20060;-64
2021/11/25 08:11:10;;;;;;;20.38;8.82;;;;;;;4.69;76.44;99561.22;4920129;29;20055;-64
2021/11/25 08:13:40;;;;;;;22.75;9.63;;;;;;;4.65;76.44;99556.94;4920037;29;20402;-64
2021/11/25 08:16:14;;;;;;;23.50;10.25;;;;;;;4.62;76.31;99544.22;4920111;29;20399;-65
2021/11/25 08:18:44;;;;;;;22.23;9.98;;;;;;;4.63;76.33;99541.72;4919674;29;20060;-63
2021/11/25 08:21:15;;;;;;;23.15;11.40;;;;;;;4.66;76.63;99551.03;4919740;29;20080;-65
2021/11/25 08:23:44;;;;;;;16.80;8.02;;;;;;;4.59;76.40;99544.16;4919624;29;20060;-65
2021/11/25 08:26:16;;;;;;;13.82;6.35;;;;;;;4.58;76.77;99542.47;4919938;29;20134;-64
2021/11/25 08:28:47;;;;;;;24.42;11.10;;;;;;;4.66;76.88;99556.09;4919315;29;20060;-65
2021/11/25 08:31:17;;;;;;;29.83;11.95;;;;;;;4.71;76.40;99549.44;4919833;29;20402;-64
2021/11/25 08:33:49;;;;;;;22.67;9.02;;;;;;;4.63;76.72;99556.03;4901823;29;20064;-64
2021/11/25 08:36:18;;;;;;;17.23;6.75;;;;;;;4.57;77.58;99558.44;4919124;29;20041;-64
2021/11/25 08:38:47;;;;;;;21.58;10.20;;;;;;;4.40;77.65;99521.84;4919359;29;20507;-64
2021/11/25 08:41:17;;;;;;;21.63;9.48;;;;;;;4.64;77.22;99548.47;4919074;29;20131;-66
2021/11/25 08:43:50;;;;;;;24.65;11.38;;;;;;;4.65;77.84;99539.22;4919160;29;20060;-63
2021/11/25 08:46:23;;;;;;;24.05;9.48;;;;;;;4.65;77.78;99526.59;4919582;29;20056;-65
2021/11/25 08:48:56;;;;;;;26.77;11.63;;;;;;;4.68;77.63;99529.16;4919353;29;20055;-66
2021/11/25 08:51:30;;;;;;;28.73;11.90;;;;;;;4.75;77.48;99528.50;4919238;29;20056;-66
2021/11/25 08:54:02;;;;;;;22.08;10.23;;;;;;;4.75;77.90;99536.06;4918957;29;20134;-64
2021/11/25 08:56:35;;;;;;;22.02;9.30;;;;;;;4.66;77.72;99529.16;4919489;29;20062;-66
2021/11/25 08:59:06;;;;;;;19.48;9.18;;;;;;;4.64;78.05;99524.88;4918919;29;20055;-67
2021/11/25 09:01:38;;;;;;;21.20;10.38;;;;;;;4.65;77.62;99524.91;4918572;29;20055;-63
2021/11/25 09:04:08;;;;;;;15.00;7.28;;;;;;;4.63;77.71;99515.59;4919074;29;20150;-65
2021/11/25 09:06:37;;;;;;;19.02;8.85;;;;;;;4.56;78.11;99513.75;4919114;29;20100;-64
2021/11/25 09:09:11;;;;;;;19.23;9.18;;;;;;;4.59;78.15;99508.75;4918855;29;20060;-66
2021/11/25 09:11:44;;;;;;;17.00;7.43;;;;;;;4.41;78.66;99473.03;4918859;29;20059;-65
2021/11/25 09:14:15;;;;;;;21.48;9.52;;;;;;;4.56;78.38;99496.06;4919067;29;20398;-63
2021/11/25 09:16:48;;;;;;;24.27;10.43;;;;;;;4.63;78.69;99481.06;4918316;29;20060;-64
2021/11/25 09:19:20;;;;;;;22.80;10.77;;;;;;;4.62;78.52;99483.56;4918503;29;20448;-64
2021/11/25 09:21:50;;;;;;;26.80;10.82;;;;;;;4.56;78.68;99468.25;4918902;29;20135;-65
2021/11/25 09:24:21;;;;;;;21.90;9.93;;;;;;;4.66;78.45;99470.16;4918766;29;20040;-64
2021/11/25 09:26:50;;;;;;;25.92;10.13;;;;;;;4.74;78.44;99468.63;4918641;29;20044;-65
2021/11/25 09:29:21;;;;;;;21.17;9.93;;;;;;;4.77;78.06;99473.75;4918697;29;20143;-64
2021/11/25 09:31:50;;;;;;;24.33;11.68;;;;;;;4.66;78.06;99460.03;4918400;29;20078;-65
2021/11/25 09:34:20;;;;;;;28.13;11.05;;;;;;;4.76;78.30;99456.88;4918361;29;20056;-65
2021/11/25 09:36:49;;;;;;;25.33;11.50;;;;;;;4.80;77.46;99458.63;4918511;29;20074;-63
2021/11/25 09:39:20;;;;;;;18.77;7.80;;;;;;;4.86;77.44;99453.69;4918519;29;20097;-65
2021/11/25 09:41:50;;;;;;;24.60;11.00;;;;;;;4.91;77.40;99447.06;4918064;29;20094;-65
2021/11/25 09:44:21;;;;;;;20.17;9.18;;;;;;;4.99;77.09;99454.78;4918379;29;20041;-66
2021/11/25 09:46:55;;;;;;;23.95;9.88;;;;;;;5.00;76.91;99452.25;4918355;29;20063;-63
2021/11/25 09:49:29;;;;;;;20.48;9.73;;;;;;;5.04;77.09;99454.00;4918413;29;20079;-63
2021/11/25 09:52:00;;;;;;;22.23;10.13;;;;;;;5.02;76.97;99437.09;4917685;29;20063;-65
2021/11/25 09:54:32;;;;;;;21.20;9.75;;;;;;;5.15;76.92;99442.41;4918340;29;20502;-66
2021/11/25 09:57:05;;;;;;;23.38;10.32;;;;;;;5.21;76.60;99427.31;4918074;29;20135;-63
2021/11/25 09:59:39;;;;;;;17.17;8.18;;;;;;;5.26;76.33;99420.66;4917871;29;20108;-65
2021/11/25 10:02:12;;;;;;;24.30;11.82;;;;;;;5.31;75.88;99423.25;4918315;29;20067;-65
2021/11/25 10:04:45;;;;;;;24.50;10.70;;;;;;;5.28;75.89;99434.19;4917992;29;20098;-66
2021/11/25 10:07:31;;;;;;;26.27;10.18;;;;;;;5.30;75.91;99417.34;4918206;29;20112;-67
2021/11/25 10:10:24;;;;;;;22.88;10.10;;;;;;;5.33;75.53;99411.47;4918146;29;20058;-66
2021/11/25 10:13:04;;;;;;;23.15;10.77;;;;;;;5.30;75.48;99392.06;4910062;29;20147;-64
2021/11/25 10:15:39;;;;;;;20.75;10.00;;;;;;;5.36;75.35;99397.22;4917747;29;20524;-63
2021/11/25 10:18:14;;;;;;;18.85;9.57;;;;;;;5.46;75.14;99402.41;4917904;29;20399;-64
2021/11/25 10:20:48;;;;;;;27.50;10.80;;;;;;;5.49;74.89;99388.13;4917622;29;20052;-66
2021/11/25 10:23:25;;;;;;;24.52;10.57;;;;;;;5.54;74.42;99395.78;4917702;29;20132;-66
2021/11/25 10:26:01;;;;;;;25.60;11.55;;;;;;;5.62;74.50;99391.69;4917996;29;20048;-65
2021/11/25 10:28:36;;;;;;;24.83;10.70;;;;;;;5.61;74.17;99392.53;4917945;29;20080;-66
2021/11/25 10:31:17;;;;;;;25.38;11.07;;;;;;;5.47;73.89;99383.88;4917506;29;20139;-63
2021/11/25 10:33:54;;;;;;;21.52;10.13;;;;;;;5.35;74.76;99374.44;4917506;29;20059;-65
2021/11/25 10:36:33;;;;;;;25.85;11.63;;;;;;;5.34;74.80;99383.69;4917439;29;20052;-64
2021/11/25 10:39:46;;;;;;;25.98;10.70;;;;;;;5.33;74.92;99361.75;4917741;29;20064;-66
2021/11/25 10:42:32;;;;;;;24.88;10.75;;;;;;;5.39;74.83;99356.78;4917418;29;20569;-66
2021/11/25 10:45:02;;;;;;;20.55;9.68;;;;;;;5.31;75.13;99353.28;4917278;29;20056;-63
2021/11/25 10:47:39;;;;;;;17.50;6.82;;;;;;;5.23;75.63;99349.78;4917311;29;20070;-64
2021/11/25 10:50:13;;;;;;;28.65;10.57;;;;;;;5.10;75.50;99322.63;4917575;29;20123;-64
2021/11/25 10:52:48;;;;;;;24.35;10.93;;;;;;;5.30;75.78;99351.56;4916998;29;20059;-64
2021/11/25 10:55:22;;;;;;;17.98;8.25;;;;;;;5.34;75.45;99348.28;4916585;29;20135;-64
2021/11/25 10:58:01;;;;;;;23.50;9.75;;;;;;;5.34;75.39;99339.81;4917108;29;20048;-64
2021/11/25 11:00:33;;;;;;;25.25;10.35;;;;;;;5.39;74.93;99344.13;4917124;29;20088;-64
2021/11/25 11:03:09;;;;;;;28.63;11.20;;;;;;;5.50;75.65;99343.41;4917756;29;20056;-64
2021/11/25 11:05:51;;;;;;;25.13;10.95;;;;;;;5.55;75.18;99331.66;4917574;29;20079;-64
2021/11/25 11:08:25;;;;;;;25.95;11.30;;;;;;;5.55;75.37;99330.00;4917202;29;20056;-65
2021/11/25 11:11:01;;;;;;;24.85;10.95;;;;;;;5.55;75.01;99331.66;4917459;29;20465;-65
2021/11/25 11:13:37;;;;;;;23.48;10.50;;;;;;;5.53;75.04;99318.16;4917131;29;20056;-64
2021/11/25 11:19:12;;;;;;;22.48;9.68;;;;;;;5.63;75.02;99310.72;5132298;27;20390;-65
2021/11/25 11:21:50;;;;;;;20.38;10.02;;;;;;;5.60;74.62;99304.75;5132308;27;20129;-65
2021/11/25 11:24:21;;;;;;;25.38;10.18;;;;;;;5.62;75.01;99295.50;5132203;27;20047;-64
2021/11/25 11:26:53;;;;;;;20.75;10.65;;;;;;;5.66;74.02;99289.66;5132112;27;20135;-65
2021/11/25 11:29:29;;;;;;;25.77;10.35;;;;;;;5.74;74.39;99282.97;5132197;27;20110;-65
2021/11/25 11:32:03;;;;;;;25.73;10.43;;;;;;;5.77;74.43;99277.97;5132050;27;20092;-65
2021/11/25 11:34:37;;;;;;;24.13;9.48;;;;;;;5.83;74.34;99270.47;5132273;28;20092;-64
2021/11/25 11:37:09;;;;;;;17.55;9.23;;;;;;;5.74;74.33;99263.59;5131586;27;20154;-65
2021/11/25 11:39:40;;;;;;;23.90;9.07;;;;;;;5.79;74.29;99283.88;5131872;27;20055;-65
2021/11/25 11:42:13;;;;;;;19.85;9.20;;;;;;;5.68;73.92;99267.72;5131602;27;20054;-64
2021/11/25 11:44:46;;;;;;;24.38;9.65;;;;;;;5.72;74.32;99282.13;5131456;27;20130;-66
2021/11/25 11:47:25;;;;;;;17.25;9.10;;;;;;;5.74;74.11;99263.59;5131782;28;20047;-65
2021/11/25 11:50:05;;;;;;;23.73;9.40;;;;;;;5.71;74.29;99257.66;5131402;27;20087;-65
2021/11/25 11:52:36;;;;;;;22.38;10.45;;;;;;;5.68;74.08;99247.47;5131671;27;20042;-65
2021/11/25 11:55:06;;;;;;;20.90;10.23;;;;;;;5.70;74.61;99245.81;5131386;27;20047;-64
2021/11/25 11:57:41;;;;;;;21.35;10.25;;;;;;;5.68;74.55;99239.88;5131530;27;20491;-64
2021/11/25 12:00:34;;;;;;;20.85;8.27;;;;;;;5.71;74.48;99245.00;5131768;27;20066;-65